METAR Data
IDs: Format: Raw Decoded Include TAF

Data at: 1321 UTC 26 Feb 2021

LIRN 261250Z 19006KT 160V220 5000 BR NSC 15/11 Q1027 NOSIG